N755CP KTEB-KAVP
Flight info
| Callsign | N755CP |
|---|---|
| Flight time | N/A |
| Altitude | 18000 |
| Route | SBJ V6 FJC T221 RITTY |
| Aircraft | B58T/L-SDFGRY/C |
Departure
| Time | 2026-05-05 02:32 |
|---|---|
| Airport | Teterboro Airport (KTEB) |
Arrival
| Time | N/A |
|---|---|
| Airport | Wilkes-Barre/Scranton International Airport (KAVP) |
| Time | Latitude | Longitude | Altitude | Speed | Heading |
|---|---|---|---|---|---|
| 2026-05-05 02:17 | 40.85296 | -74.06468 | 14 ft | 0 kts | 43° |
| 2026-05-05 02:24 | 40.85302 | -74.06460 | 12 ft | 4 kts | 43° |
| 2026-05-05 02:24 | 40.85326 | -74.06399 | 14 ft | 9 kts | 81° |
| 2026-05-05 02:25 | 40.85328 | -74.06370 | 15 ft | 0 kts | 84° |
| 2026-05-05 02:26 | 40.85328 | -74.06342 | 75 ft | 7 kts | 90° |
| 2026-05-05 02:27 | 40.85334 | -74.06282 | 15 ft | 6 kts | 65° |
| 2026-05-05 02:27 | 40.85362 | -74.06235 | 11 ft | 8 kts | 51° |
| 2026-05-05 02:27 | 40.85401 | -74.06175 | 11 ft | 9 kts | 50° |
| 2026-05-05 02:27 | 40.85445 | -74.06112 | 10 ft | 10 kts | 47° |
| 2026-05-05 02:28 | 40.85512 | -74.06062 | 11 ft | 14 kts | 6° |
| 2026-05-05 02:28 | 40.85613 | -74.06054 | 11 ft | 14 kts | 358° |
| 2026-05-05 02:28 | 40.85713 | -74.06048 | 9 ft | 14 kts | 5° |
| 2026-05-05 02:28 | 40.85766 | -74.06038 | 9 ft | 2 kts | 35° |
| 2026-05-05 02:29 | 40.85778 | -74.06015 | 9 ft | 6 kts | 72° |
| 2026-05-05 02:29 | 40.85778 | -74.05954 | 10 ft | 7 kts | 89° |
| 2026-05-05 02:29 | 40.85778 | -74.05886 | 12 ft | 9 kts | 90° |
| 2026-05-05 02:29 | 40.85780 | -74.05792 | 14 ft | 12 kts | 82° |
| 2026-05-05 02:30 | 40.85796 | -74.05659 | 14 ft | 16 kts | 81° |
| 2026-05-05 02:30 | 40.85810 | -74.05554 | 15 ft | 6 kts | 79° |
| 2026-05-05 02:30 | 40.85815 | -74.05520 | 15 ft | 0 kts | 79° |
| 2026-05-05 02:31 | 40.85807 | -74.05463 | 15 ft | 12 kts | 135° |
| 2026-05-05 02:31 | 40.85760 | -74.05433 | 14 ft | 7 kts | 214° |
| 2026-05-05 02:32 | 40.85667 | -74.05567 | 15 ft | 48 kts | 228° |
| 2026-05-05 02:32 | 40.85280 | -74.06137 | 40 ft | 109 kts | 229° |
| 2026-05-05 02:32 | 40.84755 | -74.06938 | 312 ft | 117 kts | 230° |
| 2026-05-05 02:32 | 40.84205 | -74.07718 | 643 ft | 116 kts | 226° |
| 2026-05-05 02:33 | 40.83646 | -74.08476 | 962 ft | 114 kts | 226° |
| 2026-05-05 02:33 | 40.83086 | -74.09204 | 1310 ft | 111 kts | 228° |
| 2026-05-05 02:33 | 40.82516 | -74.09859 | 1657 ft | 107 kts | 227° |
| 2026-05-05 02:33 | 40.82056 | -74.10568 | 1959 ft | 99 kts | 253° |
| 2026-05-05 02:34 | 40.81820 | -74.11414 | 2266 ft | 98 kts | 250° |
| 2026-05-05 02:34 | 40.81552 | -74.12246 | 2588 ft | 99 kts | 249° |
| 2026-05-05 02:34 | 40.81267 | -74.13073 | 2895 ft | 99 kts | 248° |
| 2026-05-05 02:34 | 40.80972 | -74.13898 | 3212 ft | 100 kts | 248° |
| 2026-05-05 02:35 | 40.80670 | -74.14728 | 3515 ft | 100 kts | 248° |
| 2026-05-05 02:35 | 40.80364 | -74.15558 | 3824 ft | 101 kts | 248° |
| 2026-05-05 02:35 | 40.80054 | -74.16394 | 4133 ft | 102 kts | 247° |
| 2026-05-05 02:35 | 40.79742 | -74.17235 | 4436 ft | 102 kts | 247° |
| 2026-05-05 02:36 | 40.79427 | -74.18080 | 4735 ft | 103 kts | 247° |
| 2026-05-05 02:36 | 40.79110 | -74.18931 | 5038 ft | 104 kts | 247° |
| 2026-05-05 02:36 | 40.78792 | -74.19784 | 5334 ft | 104 kts | 246° |
| 2026-05-05 02:36 | 40.78473 | -74.20638 | 5645 ft | 104 kts | 246° |
| 2026-05-05 02:37 | 40.78155 | -74.21492 | 5957 ft | 104 kts | 246° |
| 2026-05-05 02:37 | 40.77835 | -74.22347 | 6280 ft | 104 kts | 246° |
| 2026-05-05 02:37 | 40.77515 | -74.23204 | 6572 ft | 104 kts | 245° |
| 2026-05-05 02:37 | 40.77193 | -74.24063 | 6862 ft | 104 kts | 245° |
| 2026-05-05 02:38 | 40.76872 | -74.24923 | 7155 ft | 105 kts | 245° |
| 2026-05-05 02:38 | 40.76550 | -74.25784 | 7450 ft | 105 kts | 245° |
| 2026-05-05 02:38 | 40.76228 | -74.26647 | 7732 ft | 105 kts | 245° |
| 2026-05-05 02:38 | 40.75908 | -74.27500 | 8022 ft | 105 kts | 245° |
| 2026-05-05 02:39 | 40.75582 | -74.28372 | 8309 ft | 107 kts | 245° |
| 2026-05-05 02:39 | 40.75247 | -74.29269 | 8592 ft | 110 kts | 245° |
| 2026-05-05 02:39 | 40.74912 | -74.30161 | 8848 ft | 106 kts | 244° |
| 2026-05-05 02:39 | 40.74584 | -74.31036 | 9010 ft | 107 kts | 244° |
| 2026-05-05 02:40 | 40.74254 | -74.31917 | 9181 ft | 107 kts | 244° |
| 2026-05-05 02:40 | 40.73923 | -74.32799 | 9355 ft | 107 kts | 244° |
| 2026-05-05 02:40 | 40.73592 | -74.33683 | 9524 ft | 107 kts | 244° |